sensor_id;sensor_type;location;lat;lon;timestamp;pressure;altitude;pressure_sealevel;temperature;humidity
37202;BME280;37799;52.390;6.136;2022-10-16T00:01:42;100934.75;;;12.99;100.00
37202;BME280;37799;52.390;6.136;2022-10-16T00:04:08;100929.91;;;12.90;100.00
37202;BME280;37799;52.390;6.136;2022-10-16T00:06:33;100940.81;;;12.99;100.00
37202;BME280;37799;52.390;6.136;2022-10-16T00:08:59;100937.59;;;12.93;100.00
37202;BME280;37799;52.390;6.136;2022-10-16T00:11:33;100927.44;;;12.85;100.00
37202;BME280;37799;52.390;6.136;2022-10-16T00:14:00;100927.53;;;12.82;100.00
37202;BME280;37799;52.390;6.136;2022-10-16T00:16:27;100935.44;;;12.79;100.00
37202;BME280;37799;52.390;6.136;2022-10-16T00:18:53;100931.66;;;12.88;100.00
37202;BME280;37799;52.390;6.136;2022-10-16T00:21:21;100924.28;;;12.76;100.00
37202;BME280;37799;52.390;6.136;2022-10-16T00:23:53;100929.91;;;12.63;100.00
37202;BME280;37799;52.390;6.136;2022-10-16T00:26:19;100925.66;;;12.61;100.00
37202;BME280;37799;52.390;6.136;2022-10-16T00:28:48;100916.16;;;12.60;100.00
37202;BME280;37799;52.390;6.136;2022-10-16T00:31:15;100928.50;;;12.53;100.00
37202;BME280;37799;52.390;6.136;2022-10-16T00:33:41;100936.44;;;12.49;100.00
37202;BME280;37799;52.390;6.136;2022-10-16T00:36:10;100937.50;;;12.43;100.00
37202;BME280;37799;52.390;6.136;2022-10-16T00:38:36;100929.66;;;12.45;100.00
37202;BME280;37799;52.390;6.136;2022-10-16T00:41:03;100939.84;;;12.51;100.00
37202;BME280;37799;52.390;6.136;2022-10-16T00:43:46;100926.94;;;12.48;100.00
37202;BME280;37799;52.390;6.136;2022-10-16T00:46:24;100932.16;;;12.48;100.00
37202;BME280;37799;52.390;6.136;2022-10-16T00:48:54;100932.16;;;12.48;100.00
37202;BME280;37799;52.390;6.136;2022-10-16T00:51:25;100936.53;;;12.46;100.00
37202;BME280;37799;52.390;6.136;2022-10-16T00:53:53;100927.72;;;12.51;100.00
37202;BME280;37799;52.390;6.136;2022-10-16T00:56:18;100920.06;;;12.47;100.00
37202;BME280;37799;52.390;6.136;2022-10-16T00:58:44;100921.16;;;12.39;100.00
37202;BME280;37799;52.390;6.136;2022-10-16T01:01:09;100924.16;;;12.54;100.00
37202;BME280;37799;52.390;6.136;2022-10-16T01:03:36;100922.47;;;12.53;100.00
37202;BME280;37799;52.390;6.136;2022-10-16T01:09:11;100922.47;;;12.53;100.00
37202;BME280;37799;52.390;6.136;2022-10-16T01:11:45;100920.66;;;12.55;100.00
37202;BME280;37799;52.390;6.136;2022-10-16T01:14:31;100927.66;;;12.53;100.00
37202;BME280;37799;52.390;6.136;2022-10-16T01:17:03;100925.56;;;12.64;100.00
37202;BME280;37799;52.390;6.136;2022-10-16T01:19:38;100925.88;;;12.55;100.00
37202;BME280;37799;52.390;6.136;2022-10-16T01:22:09;100930.78;;;12.64;100.00
37202;BME280;37799;52.390;6.136;2022-10-16T01:24:38;100931.75;;;12.60;100.00
37202;BME280;37799;52.390;6.136;2022-10-16T01:32:41;100931.72;;;12.86;100.00
37202;BME280;37799;52.390;6.136;2022-10-16T01:35:11;100942.22;;;12.83;100.00
37202;BME280;37799;52.390;6.136;2022-10-16T01:37:48;100929.28;;;12.82;100.00
37202;BME280;37799;52.390;6.136;2022-10-16T01:40:18;100921.56;;;12.80;100.00
37202;BME280;37799;52.390;6.136;2022-10-16T01:42:48;100920.84;;;12.75;100.00
37202;BME280;37799;52.390;6.136;2022-10-16T01:45:17;100914.56;;;12.82;100.00
37202;BME280;37799;52.390;6.136;2022-10-16T01:47:44;100913.81;;;12.79;100.00
37202;BME280;37799;52.390;6.136;2022-10-16T01:50:11;100916.84;;;12.91;100.00
37202;BME280;37799;52.390;6.136;2022-10-16T01:52:40;100917.09;;;12.84;100.00
37202;BME280;37799;52.390;6.136;2022-10-16T01:55:08;100922.88;;;12.92;100.00
37202;BME280;37799;52.390;6.136;2022-10-16T01:57:38;100917.41;;;12.75;100.00
37202;BME280;37799;52.390;6.136;2022-10-16T02:00:09;100921.25;;;12.89;100.00
37202;BME280;37799;52.390;6.136;2022-10-16T02:02:36;100919.63;;;12.85;100.00
37202;BME280;37799;52.390;6.136;2022-10-16T02:05:26;100919.63;;;12.85;100.00
37202;BME280;37799;52.390;6.136;2022-10-16T02:07:53;100926.22;;;12.95;100.00
37202;BME280;37799;52.390;6.136;2022-10-16T02:10:18;100917.22;;;13.06;100.00
37202;BME280;37799;52.390;6.136;2022-10-16T02:12:53;100923.50;;;12.98;100.00
37202;BME280;37799;52.390;6.136;2022-10-16T02:15:21;100927.06;;;12.96;100.00
37202;BME280;37799;52.390;6.136;2022-10-16T02:17:46;100921.38;;;12.85;100.00
37202;BME280;37799;52.390;6.136;2022-10-16T02:20:12;100924.78;;;12.87;100.00
37202;BME280;37799;52.390;6.136;2022-10-16T02:22:40;100917.84;;;12.87;100.00
37202;BME280;37799;52.390;6.136;2022-10-16T02:25:17;100924.41;;;12.97;100.00
37202;BME280;37799;52.390;6.136;2022-10-16T02:27:57;100921.88;;;12.96;100.00
37202;BME280;37799;52.390;6.136;2022-10-16T02:30:29;100924.41;;;12.97;100.00
37202;BME280;37799;52.390;6.136;2022-10-16T02:32:58;100929.00;;;12.91;100.00
37202;BME280;37799;52.390;6.136;2022-10-16T02:35:25;100935.22;;;12.85;100.00
37202;BME280;37799;52.390;6.136;2022-10-16T02:37:52;100929.84;;;12.91;100.00
37202;BME280;37799;52.390;6.136;2022-10-16T02:40:18;100943.81;;;12.87;100.00
37202;BME280;37799;52.390;6.136;2022-10-16T02:42:44;100946.06;;;12.98;100.00
37202;BME280;37799;52.390;6.136;2022-10-16T02:45:10;100957.31;;;12.98;100.00
37202;BME280;37799;52.390;6.136;2022-10-16T02:47:36;100949.38;;;13.03;100.00
37202;BME280;37799;52.390;6.136;2022-10-16T02:50:02;100940.31;;;12.88;100.00
37202;BME280;37799;52.390;6.136;2022-10-16T02:52:28;100948.81;;;12.93;100.00
37202;BME280;37799;52.390;6.136;2022-10-16T02:54:53;100942.03;;;12.89;100.00
37202;BME280;37799;52.390;6.136;2022-10-16T02:57:18;100936.41;;;13.02;100.00
37202;BME280;37799;52.390;6.136;2022-10-16T02:59:44;100941.72;;;12.98;100.00
37202;BME280;37799;52.390;6.136;2022-10-16T03:02:10;100940.97;;;12.95;100.00
37202;BME280;37799;52.390;6.136;2022-10-16T03:04:35;100945.50;;;12.88;100.00
37202;BME280;37799;52.390;6.136;2022-10-16T03:07:01;100949.97;;;12.85;100.00
37202;BME280;37799;52.390;6.136;2022-10-16T03:09:26;100952.75;;;12.80;100.00
37202;BME280;37799;52.390;6.136;2022-10-16T03:11:51;100956.97;;;12.83;100.00
37202;BME280;37799;52.390;6.136;2022-10-16T03:14:17;100957.63;;;12.89;100.00
37202;BME280;37799;52.390;6.136;2022-10-16T03:16:42;100972.22;;;12.93;100.00
37202;BME280;37799;52.390;6.136;2022-10-16T03:19:08;100964.16;;;13.01;100.00
37202;BME280;37799;52.390;6.136;2022-10-16T03:21:33;100974.66;;;12.98;100.00
37202;BME280;37799;52.390;6.136;2022-10-16T03:23:58;100969.81;;;12.87;100.00
37202;BME280;37799;52.390;6.136;2022-10-16T03:26:23;100972.09;;;12.96;100.00
37202;BME280;37799;52.390;6.136;2022-10-16T03:28:49;100970.31;;;12.98;100.00
37202;BME280;37799;52.390;6.136;2022-10-16T03:31:14;100955.16;;;12.85;100.00
37202;BME280;37799;52.390;6.136;2022-10-16T03:33:39;100957.53;;;12.92;100.00
37202;BME280;37799;52.390;6.136;2022-10-16T03:36:05;100953.06;;;12.96;100.00
37202;BME280;37799;52.390;6.136;2022-10-16T03:38:30;100958.38;;;12.93;100.00
37202;BME280;37799;52.390;6.136;2022-10-16T03:40:55;100950.72;;;12.88;100.00
37202;BME280;37799;52.390;6.136;2022-10-16T03:43:21;100958.03;;;12.77;100.00
37202;BME280;37799;52.390;6.136;2022-10-16T03:45:46;100957.44;;;12.69;100.00
37202;BME280;37799;52.390;6.136;2022-10-16T03:48:11;100962.63;;;12.69;100.00
37202;BME280;37799;52.390;6.136;2022-10-16T03:50:37;100963.19;;;12.52;100.00
37202;BME280;37799;52.390;6.136;2022-10-16T03:53:02;100952.78;;;12.52;100.00
37202;BME280;37799;52.390;6.136;2022-10-16T03:55:27;100957.41;;;12.43;100.00
37202;BME280;37799;52.390;6.136;2022-10-16T03:57:53;100969.28;;;12.51;100.00
37202;BME280;37799;52.390;6.136;2022-10-16T04:00:18;100967.91;;;12.39;100.00
37202;BME280;37799;52.390;6.136;2022-10-16T04:02:44;100970.41;;;12.43;100.00
37202;BME280;37799;52.390;6.136;2022-10-16T04:05:09;100971.09;;;12.48;100.00
37202;BME280;37799;52.390;6.136;2022-10-16T04:07:35;100978.84;;;12.49;100.00
37202;BME280;37799;52.390;6.136;2022-10-16T04:10:00;100981.59;;;12.45;100.00
37202;BME280;37799;52.390;6.136;2022-10-16T04:12:26;100975.59;;;12.43;100.00
37202;BME280;37799;52.390;6.136;2022-10-16T04:14:51;100983.63;;;12.35;100.00
37202;BME280;37799;52.390;6.136;2022-10-16T04:17:17;100982.75;;;12.34;100.00
37202;BME280;37799;52.390;6.136;2022-10-16T04:19:42;100988.06;;;12.31;100.00
37202;BME280;37799;52.390;6.136;2022-10-16T04:22:08;100994.78;;;12.38;100.00
37202;BME280;37799;52.390;6.136;2022-10-16T04:24:33;100989.06;;;12.27;100.00
37202;BME280;37799;52.390;6.136;2022-10-16T04:26:58;100999.34;;;12.30;100.00
37202;BME280;37799;52.390;6.136;2022-10-16T04:29:24;101004.09;;;12.16;100.00
37202;BME280;37799;52.390;6.136;2022-10-16T04:31:49;101005.28;;;12.06;100.00
37202;BME280;37799;52.390;6.136;2022-10-16T04:34:14;101016.00;;;12.23;100.00
37202;BME280;37799;52.390;6.136;2022-10-16T04:36:40;101014.03;;;12.31;100.00
37202;BME280;37799;52.390;6.136;2022-10-16T04:39:05;101010.94;;;12.19;100.00
37202;BME280;37799;52.390;6.136;2022-10-16T04:41:30;101016.28;;;12.14;100.00
37202;BME280;37799;52.390;6.136;2022-10-16T04:43:55;101023.19;;;12.15;100.00
37202;BME280;37799;52.390;6.136;2022-10-16T04:46:21;101018.78;;;12.17;100.00
37202;BME280;37799;52.390;6.136;2022-10-16T04:48:46;101029.66;;;12.30;100.00
37202;BME280;37799;52.390;6.136;2022-10-16T04:51:12;101033.16;;;12.29;100.00
37202;BME280;37799;52.390;6.136;2022-10-16T04:53:37;101040.00;;;12.31;100.00
37202;BME280;37799;52.390;6.136;2022-10-16T04:56:03;101042.97;;;12.47;100.00
37202;BME280;37799;52.390;6.136;2022-10-16T04:58:28;101046.78;;;12.37;100.00
37202;BME280;37799;52.390;6.136;2022-10-16T05:00:53;101047.88;;;12.28;100.00
37202;BME280;37799;52.390;6.136;2022-10-16T05:03:19;101052.22;;;12.28;100.00
37202;BME280;37799;52.390;6.136;2022-10-16T05:05:45;101052.31;;;12.25;100.00
37202;BME280;37799;52.390;6.136;2022-10-16T05:08:12;101046.34;;;12.21;100.00
37202;BME280;37799;52.390;6.136;2022-10-16T05:10:38;101045.53;;;12.19;100.00
37202;BME280;37799;52.390;6.136;2022-10-16T05:13:03;101049.84;;;12.20;100.00
37202;BME280;37799;52.390;6.136;2022-10-16T05:15:29;101047.97;;;12.25;100.00
37202;BME280;37799;52.390;6.136;2022-10-16T05:17:55;101057.41;;;12.28;100.00
37202;BME280;37799;52.390;6.136;2022-10-16T05:20:21;101056.94;;;12.15;100.00
37202;BME280;37799;52.390;6.136;2022-10-16T05:22:47;101059.25;;;12.24;100.00
37202;BME280;37799;52.390;6.136;2022-10-16T05:25:12;101068.41;;;12.37;100.00
37202;BME280;37799;52.390;6.136;2022-10-16T05:27:38;101071.16;;;12.31;100.00
37202;BME280;37799;52.390;6.136;2022-10-16T05:30:03;101075.66;;;12.26;100.00
37202;BME280;37799;52.390;6.136;2022-10-16T05:32:29;101088.34;;;12.35;100.00
37202;BME280;37799;52.390;6.136;2022-10-16T05:34:54;101079.69;;;12.35;100.00
37202;BME280;37799;52.390;6.136;2022-10-16T05:37:19;101079.88;;;12.29;100.00
37202;BME280;37799;52.390;6.136;2022-10-16T05:39:45;101083.88;;;12.40;100.00
37202;BME280;37799;52.390;6.136;2022-10-16T05:42:10;101085.72;;;12.37;100.00
37202;BME280;37799;52.390;6.136;2022-10-16T05:44:35;101082.63;;;12.24;100.00
37202;BME280;37799;52.390;6.136;2022-10-16T05:47:00;101094.53;;;12.31;100.00
37202;BME280;37799;52.390;6.136;2022-10-16T05:49:26;101084.19;;;12.30;100.00
37202;BME280;37799;52.390;6.136;2022-10-16T05:51:51;101091.94;;;12.31;100.00
37202;BME280;37799;52.390;6.136;2022-10-16T05:54:16;101092.91;;;12.27;100.00
37202;BME280;37799;52.390;6.136;2022-10-16T05:56:42;101098.22;;;12.24;100.00
37202;BME280;37799;52.390;6.136;2022-10-16T05:59:07;101096.22;;;12.32;100.00
37202;BME280;37799;52.390;6.136;2022-10-16T06:01:32;101102.75;;;12.46;100.00
37202;BME280;37799;52.390;6.136;2022-10-16T06:03:58;101106.44;;;12.38;100.00
37202;BME280;37799;52.390;6.136;2022-10-16T06:06:26;101119.34;;;12.42;100.00
37202;BME280;37799;52.390;6.136;2022-10-16T06:08:53;101118.28;;;12.47;100.00
37202;BME280;37799;52.390;6.136;2022-10-16T06:11:23;101123.50;;;12.47;100.00
37202;BME280;37799;52.390;6.136;2022-10-16T06:13:53;101132.41;;;12.38;100.00
37202;BME280;37799;52.390;6.136;2022-10-16T06:16:20;101142.81;;;12.38;100.00
37202;BME280;37799;52.390;6.136;2022-10-16T06:18:46;101137.63;;;12.38;100.00
37202;BME280;37799;52.390;6.136;2022-10-16T06:21:17;101136.78;;;12.36;100.00
37202;BME280;37799;52.390;6.136;2022-10-16T06:23:44;101140.16;;;12.40;100.00
37202;BME280;37799;52.390;6.136;2022-10-16T06:26:12;101148.13;;;12.34;100.00
37202;BME280;37799;52.390;6.136;2022-10-16T06:28:38;101148.25;;;12.29;100.00
37202;BME280;37799;52.390;6.136;2022-10-16T06:31:05;101153.44;;;12.29;100.00
37202;BME280;37799;52.390;6.136;2022-10-16T06:33:31;101157.84;;;12.27;100.00
37202;BME280;37799;52.390;6.136;2022-10-16T06:36:03;101163.75;;;12.32;100.00
37202;BME280;37799;52.390;6.136;2022-10-16T06:38:30;101170.63;;;12.64;100.00
37202;BME280;37799;52.390;6.136;2022-10-16T06:40:55;101169.94;;;12.58;100.00
37202;BME280;37799;52.390;6.136;2022-10-16T06:43:20;101174.88;;;12.67;100.00
37202;BME280;37799;52.390;6.136;2022-10-16T06:45:56;101171.81;;;12.82;100.00
37202;BME280;37799;52.390;6.136;2022-10-16T06:48:22;101186.59;;;13.10;100.00
37202;BME280;37799;52.390;6.136;2022-10-16T06:51:12;101200.59;;;13.06;100.00
37202;BME280;37799;52.390;6.136;2022-10-16T06:53:46;101209.50;;;12.97;100.00
37202;BME280;37799;52.390;6.136;2022-10-16T06:56:17;101211.78;;;13.08;100.00
37202;BME280;37799;52.390;6.136;2022-10-16T06:58:43;101215.44;;;13.02;100.00
37202;BME280;37799;52.390;6.136;2022-10-16T07:01:10;101224.50;;;13.17;100.00
37202;BME280;37799;52.390;6.136;2022-10-16T07:03:37;101221.28;;;13.09;100.00
37202;BME280;37799;52.390;6.136;2022-10-16T07:06:04;101235.88;;;13.13;100.00
37202;BME280;37799;52.390;6.136;2022-10-16T07:08:34;101240.34;;;13.09;100.00
37202;BME280;37799;52.390;6.136;2022-10-16T07:11:20;101248.88;;;13.13;100.00
37202;BME280;37799;52.390;6.136;2022-10-16T07:13:47;101251.03;;;13.28;100.00
37202;BME280;37799;52.390;6.136;2022-10-16T07:16:16;101262.59;;;13.47;100.00
37202;BME280;37799;52.390;6.136;2022-10-16T07:18:42;101255.84;;;13.42;100.00
37202;BME280;37799;52.390;6.136;2022-10-16T07:21:15;101264.59;;;13.39;100.00
37202;BME280;37799;52.390;6.136;2022-10-16T07:23:41;101242.00;;;13.41;100.00
37202;BME280;37799;52.390;6.136;2022-10-16T07:26:09;101241.09;;;13.42;100.00
37202;BME280;37799;52.390;6.136;2022-10-16T07:28:35;101238.19;;;13.51;100.00
37202;BME280;37799;52.390;6.136;2022-10-16T07:31:09;101244.25;;;13.52;100.00
37202;BME280;37799;52.390;6.136;2022-10-16T07:33:36;101257.19;;;13.53;100.00
37202;BME280;37799;52.390;6.136;2022-10-16T07:36:01;101260.41;;;13.62;100.00
37202;BME280;37799;52.390;6.136;2022-10-16T07:38:27;101258.50;;;13.67;100.00
37202;BME280;37799;52.390;6.136;2022-10-16T07:41:00;101263.66;;;13.70;100.00
37202;BME280;37799;52.390;6.136;2022-10-16T07:43:27;101261.94;;;13.69;100.00
37202;BME280;37799;52.390;6.136;2022-10-16T07:45:53;101254.06;;;13.44;100.00
37202;BME280;37799;52.390;6.136;2022-10-16T07:48:19;101264.41;;;13.45;100.00
37202;BME280;37799;52.390;6.136;2022-10-16T07:50:45;101272.41;;;13.66;100.00
37202;BME280;37799;52.390;6.136;2022-10-16T07:53:11;101270.53;;;13.71;100.00
37202;BME280;37799;52.390;6.136;2022-10-16T07:55:37;101271.50;;;13.68;100.00
37202;BME280;37799;52.390;6.136;2022-10-16T07:58:03;101279.78;;;13.79;100.00
37202;BME280;37799;52.390;6.136;2022-10-16T08:00:28;101289.00;;;13.90;100.00
37202;BME280;37799;52.390;6.136;2022-10-16T08:02:53;101292.47;;;13.90;100.00
37202;BME280;37799;52.390;6.136;2022-10-16T08:05:19;101304.28;;;14.00;100.00
37202;BME280;37799;52.390;6.136;2022-10-16T08:07:48;101306.50;;;14.12;100.00
37202;BME280;37799;52.390;6.136;2022-10-16T08:10:18;101293.69;;;14.31;100.00
37202;BME280;37799;52.390;6.136;2022-10-16T08:12:45;101319.91;;;14.53;100.00
37202;BME280;37799;52.390;6.136;2022-10-16T08:15:10;101321.19;;;14.66;100.00
37202;BME280;37799;52.390;6.136;2022-10-16T08:17:36;101325.22;;;14.50;100.00
37202;BME280;37799;52.390;6.136;2022-10-16T08:20:02;101327.59;;;14.56;100.00
37202;BME280;37799;52.390;6.136;2022-10-16T08:22:27;101328.38;;;14.83;100.00
37202;BME280;37799;52.390;6.136;2022-10-16T08:24:52;101336.88;;;14.65;100.00
37202;BME280;37799;52.390;6.136;2022-10-16T08:27:18;101339.59;;;14.87;100.00
37202;BME280;37799;52.390;6.136;2022-10-16T08:29:43;101340.53;;;14.84;100.00
37202;BME280;37799;52.390;6.136;2022-10-16T08:32:08;101336.75;;;14.93;100.00
37202;BME280;37799;52.390;6.136;2022-10-16T08:34:33;101341.53;;;15.28;100.00
37202;BME280;37799;52.390;6.136;2022-10-16T08:36:59;101348.81;;;15.87;100.00
37202;BME280;37799;52.390;6.136;2022-10-16T08:39:24;101355.34;;;16.62;100.00
37202;BME280;37799;52.390;6.136;2022-10-16T08:41:55;101353.75;;;17.37;100.00
37202;BME280;37799;52.390;6.136;2022-10-16T08:44:37;101366.00;;;17.75;100.00
37202;BME280;37799;52.390;6.136;2022-10-16T08:47:21;101376.44;;;18.12;100.00
37202;BME280;37799;52.390;6.136;2022-10-16T08:49:57;101391.88;;;18.53;100.00
37202;BME280;37799;52.390;6.136;2022-10-16T08:52:29;101387.00;;;18.45;100.00
37202;BME280;37799;52.390;6.136;2022-10-16T08:54:55;101393.09;;;18.46;100.00
37202;BME280;37799;52.390;6.136;2022-10-16T08:57:22;101390.38;;;18.66;100.00
37202;BME280;37799;52.390;6.136;2022-10-16T08:59:48;101395.28;;;18.72;100.00
37202;BME280;37799;52.390;6.136;2022-10-16T09:02:37;101401.47;;;19.22;100.00
37202;BME280;37799;52.390;6.136;2022-10-16T09:08:26;101406.22;;;19.15;100.00
37202;BME280;37799;52.390;6.136;2022-10-16T09:10:59;101415.47;;;19.05;100.00
37202;BME280;37799;52.390;6.136;2022-10-16T09:13:41;101411.50;;;18.80;100.00
37202;BME280;37799;52.390;6.136;2022-10-16T09:18:54;101415.72;;;19.33;100.00
37202;BME280;37799;52.390;6.136;2022-10-16T09:21:25;101427.94;;;19.50;100.00
37202;BME280;37799;52.390;6.136;2022-10-16T09:23:51;101437.06;;;19.76;100.00
37202;BME280;37799;52.390;6.136;2022-10-16T09:26:17;101435.47;;;19.89;100.00
37202;BME280;37799;52.390;6.136;2022-10-16T09:28:44;101438.16;;;19.56;100.00
37202;BME280;37799;52.390;6.136;2022-10-16T09:31:19;101444.53;;;19.68;100.00
37202;BME280;37799;52.390;6.136;2022-10-16T09:33:48;101438.50;;;19.66;100.00
37202;BME280;37799;52.390;6.136;2022-10-16T09:36:15;101447.00;;;19.87;100.00
37202;BME280;37799;52.390;6.136;2022-10-16T09:38:41;101449.38;;;19.91;100.00
37202;BME280;37799;52.390;6.136;2022-10-16T09:41:21;101461.00;;;19.87;100.00
37202;BME280;37799;52.390;6.136;2022-10-16T09:43:58;101456.31;;;19.77;100.00
37202;BME280;37799;52.390;6.136;2022-10-16T09:46:29;101456.50;;;19.89;100.00
37202;BME280;37799;52.390;6.136;2022-10-16T09:48:57;101462.44;;;20.09;100.00
37202;BME280;37799;52.390;6.136;2022-10-16T09:51:31;101469.03;;;20.16;100.00
37202;BME280;37799;52.390;6.136;2022-10-16T09:56:25;101472.16;;;20.38;100.00
37202;BME280;37799;52.390;6.136;2022-10-16T09:58:53;101465.31;;;20.20;100.00
37202;BME280;37799;52.390;6.136;2022-10-16T10:01:20;101467.88;;;20.06;100.00
37202;BME280;37799;52.390;6.136;2022-10-16T10:03:46;101459.69;;;19.63;100.00
37202;BME280;37799;52.390;6.136;2022-10-16T10:06:21;101454.78;;;19.88;100.00
37202;BME280;37799;52.390;6.136;2022-10-16T10:08:59;101458.22;;;20.06;100.00
37202;BME280;37799;52.390;6.136;2022-10-16T10:11:48;101460.38;;;20.29;100.00
37202;BME280;37799;52.390;6.136;2022-10-16T10:14:27;101471.25;;;19.92;100.00
37202;BME280;37799;52.390;6.136;2022-10-16T10:19:54;101469.34;;;20.41;100.00
37202;BME280;37799;52.390;6.136;2022-10-16T10:25:01;101490.66;;;21.12;100.00
37202;BME280;37799;52.390;6.136;2022-10-16T10:30:52;101491.13;;;19.31;100.00
37202;BME280;37799;52.390;6.136;2022-10-16T10:33:36;101507.38;;;19.88;100.00
37202;BME280;37799;52.390;6.136;2022-10-16T10:38:50;101503.19;;;19.68;100.00
37202;BME280;37799;52.390;6.136;2022-10-16T10:44:20;101503.47;;;19.95;100.00
37202;BME280;37799;52.390;6.136;2022-10-16T10:46:51;101503.84;;;20.21;100.00
37202;BME280;37799;52.390;6.136;2022-10-16T10:49:44;101503.81;;;20.52;100.00
37202;BME280;37799;52.390;6.136;2022-10-16T10:58:14;101524.19;;;21.25;96.32
37202;BME280;37799;52.390;6.136;2022-10-16T11:01:02;101515.94;;;21.45;96.07
37202;BME280;37799;52.390;6.136;2022-10-16T11:06:24;101524.22;;;21.82;93.34
37202;BME280;37799;52.390;6.136;2022-10-16T11:09:11;101517.06;;;21.84;94.26
37202;BME280;37799;52.390;6.136;2022-10-16T11:12:05;101532.44;;;21.77;89.28
37202;BME280;37799;52.390;6.136;2022-10-16T11:14:36;101541.53;;;21.86;89.35
37202;BME280;37799;52.390;6.136;2022-10-16T11:17:11;101538.16;;;21.55;90.94
37202;BME280;37799;52.390;6.136;2022-10-16T11:24:49;101539.84;;;21.85;91.07
37202;BME280;37799;52.390;6.136;2022-10-16T11:27:20;101544.19;;;22.28;88.44
37202;BME280;37799;52.390;6.136;2022-10-16T11:29:58;101554.06;;;21.68;90.30
37202;BME280;37799;52.390;6.136;2022-10-16T11:32:30;101551.31;;;21.41;94.30
37202;BME280;37799;52.390;6.136;2022-10-16T11:35:00;101549.78;;;21.23;91.59
37202;BME280;37799;52.390;6.136;2022-10-16T11:37:33;101547.88;;;20.49;95.46
37202;BME280;37799;52.390;6.136;2022-10-16T11:40:33;101540.69;;;20.03;99.78
37202;BME280;37799;52.390;6.136;2022-10-16T11:43:17;101549.75;;;19.82;97.22
37202;BME280;37799;52.390;6.136;2022-10-16T11:45:49;101549.19;;;19.60;100.00
37202;BME280;37799;52.390;6.136;2022-10-16T11:51:42;101549.06;;;19.28;100.00
37202;BME280;37799;52.390;6.136;2022-10-16T11:54:30;101546.38;;;19.80;100.00
37202;BME280;37799;52.390;6.136;2022-10-16T11:57:02;101563.19;;;19.93;97.99
37202;BME280;37799;52.390;6.136;2022-10-16T11:59:36;101561.97;;;19.83;97.13
37202;BME280;37799;52.390;6.136;2022-10-16T12:05:29;101559.25;;;19.85;99.27
37202;BME280;37799;52.390;6.136;2022-10-16T12:08:10;101557.56;;;19.84;100.00
37202;BME280;37799;52.390;6.136;2022-10-16T12:10:38;101567.06;;;20.02;100.00
37202;BME280;37799;52.390;6.136;2022-10-16T12:13:25;101572.69;;;20.12;95.42
37202;BME280;37799;52.390;6.136;2022-10-16T12:15:50;101576.34;;;19.76;100.00
37202;BME280;37799;52.390;6.136;2022-10-16T12:18:23;101569.09;;;19.47;100.00
37202;BME280;37799;52.390;6.136;2022-10-16T12:20:56;101570.56;;;19.52;100.00
37202;BME280;37799;52.390;6.136;2022-10-16T12:23:30;101574.00;;;19.87;100.00
37202;BME280;37799;52.390;6.136;2022-10-16T12:25:58;101569.78;;;19.50;97.64
37202;BME280;37799;52.390;6.136;2022-10-16T12:28:28;101576.81;;;19.50;99.56
37202;BME280;37799;52.390;6.136;2022-10-16T12:31:02;101575.75;;;19.36;96.09
37202;BME280;37799;52.390;6.136;2022-10-16T12:33:33;101577.66;;;19.50;97.97
37202;BME280;37799;52.390;6.136;2022-10-16T12:36:01;101581.84;;;19.54;95.97
37202;BME280;37799;52.390;6.136;2022-10-16T12:38:36;101584.13;;;19.27;100.00
37202;BME280;37799;52.390;6.136;2022-10-16T12:41:08;101581.16;;;19.16;100.00
37202;BME280;37799;52.390;6.136;2022-10-16T12:43:45;101586.94;;;19.23;100.00
37202;BME280;37799;52.390;6.136;2022-10-16T12:48:38;101587.59;;;19.28;100.00
37202;BME280;37799;52.390;6.136;2022-10-16T12:59:37;101599.09;;;19.42;97.30
37202;BME280;37799;52.390;6.136;2022-10-16T13:13:46;101601.69;;;19.25;90.87
37202;BME280;37799;52.390;6.136;2022-10-16T13:18:57;101606.50;;;19.17;95.35
37202;BME280;37799;52.390;6.136;2022-10-16T13:24:08;101606.88;;;19.09;99.63
37202;BME280;37799;52.390;6.136;2022-10-16T13:26:52;101612.28;;;19.24;96.92
37202;BME280;37799;52.390;6.136;2022-10-16T13:29:21;101617.75;;;19.02;100.00
37202;BME280;37799;52.390;6.136;2022-10-16T13:31:47;101613.19;;;18.88;100.00
37202;BME280;37799;52.390;6.136;2022-10-16T13:34:16;101616.34;;;18.95;100.00
37202;BME280;37799;52.390;6.136;2022-10-16T13:36:50;101608.28;;;18.80;100.00
37202;BME280;37799;52.390;6.136;2022-10-16T13:39:25;101608.22;;;18.82;100.00
37202;BME280;37799;52.390;6.136;2022-10-16T13:42:05;101614.38;;;18.81;100.00
37202;BME280;37799;52.390;6.136;2022-10-16T13:44:53;101619.13;;;18.92;100.00
37202;BME280;37799;52.390;6.136;2022-10-16T13:47:20;101616.69;;;19.06;99.76
37202;BME280;37799;52.390;6.136;2022-10-16T13:49:47;101612.63;;;18.99;100.00
37202;BME280;37799;52.390;6.136;2022-10-16T13:52:23;101620.38;;;19.02;96.33
37202;BME280;37799;52.390;6.136;2022-10-16T13:54:48;101618.94;;;18.77;98.48
37202;BME280;37799;52.390;6.136;2022-10-16T13:57:15;101625.94;;;18.58;99.63
37202;BME280;37799;52.390;6.136;2022-10-16T13:59:40;101629.13;;;18.46;100.00
37202;BME280;37799;52.390;6.136;2022-10-16T14:02:27;101623.84;;;18.66;100.00
37202;BME280;37799;52.390;6.136;2022-10-16T14:04:55;101635.09;;;18.68;100.00
37202;BME280;37799;52.390;6.136;2022-10-16T14:07:28;101624.38;;;18.73;100.00
37202;BME280;37799;52.390;6.136;2022-10-16T14:09:54;101631.72;;;18.66;99.27
37202;BME280;37799;52.390;6.136;2022-10-16T14:12:21;101630.63;;;18.89;99.55